Coral Springs, Florida
Current Conditions -  °F | °C
As of 5:53 AM on Friday 21 Nov 2014 (Local Time) from KFXE Reporting Station
Overcast Overcast  
Wind Chill: 71°   Ceiling: 2200
Heat Index: 71°   Visibility: 10mi
Dew Point: 65°   Wind: 9mph
Humidity: 81%   Direction: 50°NE
Pressure: 30.11"   Gusts: 20mph
Location:  26.27°N, 80.25°W
Report Text: KFXE 211053Z 05008G17KT 10SM BKN022 BKN031 OVC038 22/18 A3011 RMK AO2 SLP198 T02170183
Loading
Personal Weather Stations






























Interactive Weather Map New forecast layout! Learn more

10-Day Weather Forecast

Advertisements
Track Severe Weather on mobile